createdAt,value
2018-05-24T00:00:24.278Z,0.00
2018-05-24T00:01:24.314Z,0.00
2018-05-24T00:02:24.351Z,0.00
2018-05-24T00:03:24.385Z,0.00
2018-05-24T00:04:24.421Z,0.00
2018-05-24T00:05:24.456Z,0.00
2018-05-24T00:06:24.493Z,0.00
2018-05-24T00:07:24.526Z,0.00
2018-05-24T00:08:24.561Z,0.00
2018-05-24T00:09:24.596Z,0.00
2018-05-24T00:10:24.632Z,0.00
2018-05-24T00:11:24.667Z,0.00
2018-05-24T00:12:24.702Z,0.00
2018-05-24T00:13:24.743Z,0.00
2018-05-24T00:14:24.774Z,0.00
2018-05-24T00:15:24.808Z,0.00
2018-05-24T00:16:24.844Z,0.00
2018-05-24T00:17:24.880Z,0.00
2018-05-24T00:18:24.915Z,0.00
2018-05-24T00:19:24.949Z,0.00
2018-05-24T00:20:24.984Z,0.00
2018-05-24T00:21:25.021Z,0.00
2018-05-24T00:22:25.060Z,0.00
2018-05-24T00:23:25.097Z,0.00
2018-05-24T00:24:25.126Z,0.00
2018-05-24T00:25:25.163Z,0.00
2018-05-24T00:26:25.197Z,0.00
2018-05-24T00:27:25.232Z,0.00
2018-05-24T00:28:25.266Z,0.00
2018-05-24T00:29:25.304Z,0.00
2018-05-24T00:30:25.339Z,0.00
2018-05-24T00:31:25.373Z,0.00
2018-05-24T00:32:25.410Z,0.00
2018-05-24T00:33:25.445Z,0.00
2018-05-24T00:34:25.481Z,0.00
2018-05-24T00:35:25.515Z,0.00
2018-05-24T00:36:25.551Z,0.00
2018-05-24T00:37:25.587Z,0.00
2018-05-24T00:38:25.622Z,0.00
2018-05-24T00:39:25.660Z,0.00
2018-05-24T00:40:25.692Z,0.00
2018-05-24T00:41:25.728Z,0.00
2018-05-24T00:42:25.763Z,0.00
2018-05-24T00:43:25.799Z,0.00
2018-05-24T00:44:25.838Z,0.00
2018-05-24T00:45:25.871Z,0.00
2018-05-24T00:46:25.912Z,0.00
2018-05-24T00:47:25.949Z,0.00
2018-05-24T00:48:25.977Z,0.00
2018-05-24T00:49:26.015Z,0.00
2018-05-24T00:50:26.049Z,0.00
2018-05-24T00:51:26.083Z,0.00
2018-05-24T00:52:26.119Z,0.00
2018-05-24T00:53:26.155Z,0.00
2018-05-24T00:54:26.191Z,0.00
2018-05-24T00:55:26.226Z,0.00
2018-05-24T00:56:26.261Z,0.00
2018-05-24T00:57:26.297Z,0.00
2018-05-24T00:58:26.332Z,0.00
2018-05-24T00:59:26.368Z,0.00
2018-05-24T01:00:26.403Z,0.00
2018-05-24T01:01:26.439Z,0.00
2018-05-24T01:02:26.474Z,0.00
2018-05-24T01:03:26.509Z,0.00
2018-05-24T01:04:26.544Z,0.00
2018-05-24T01:05:26.584Z,0.00
2018-05-24T01:06:26.617Z,0.00
2018-05-24T01:07:26.651Z,0.00
2018-05-24T01:08:26.685Z,0.00
2018-05-24T01:09:26.722Z,0.00
2018-05-24T01:10:26.757Z,0.00
2018-05-24T01:11:26.793Z,0.00
2018-05-24T01:12:26.828Z,0.00
2018-05-24T01:13:26.864Z,0.00
2018-05-24T01:14:26.900Z,0.00
2018-05-24T01:15:26.935Z,0.00
2018-05-24T01:16:26.970Z,0.00
2018-05-24T01:17:27.006Z,0.00
2018-05-24T01:18:27.042Z,0.00
2018-05-24T01:19:27.077Z,0.00
2018-05-24T01:20:27.112Z,0.00
2018-05-24T01:21:27.148Z,0.00
2018-05-24T01:22:27.184Z,0.00
2018-05-24T01:23:27.218Z,0.00
2018-05-24T01:24:27.254Z,0.00
2018-05-24T01:25:27.290Z,0.00
2018-05-24T01:26:27.329Z,0.00
2018-05-24T01:27:27.361Z,0.00
2018-05-24T01:28:27.398Z,0.00
2018-05-24T01:29:27.433Z,0.00
2018-05-24T01:30:27.467Z,0.00
2018-05-24T01:31:27.502Z,0.00
2018-05-24T01:32:27.538Z,0.00
2018-05-24T01:33:27.574Z,0.00
2018-05-24T01:34:27.610Z,0.00
2018-05-24T01:35:27.644Z,0.00
2018-05-24T01:36:27.680Z,0.00
2018-05-24T01:37:27.720Z,0.00
2018-05-24T01:38:27.752Z,0.00
2018-05-24T01:39:27.786Z,0.00
2018-05-24T01:40:27.822Z,0.00
2018-05-24T01:41:27.857Z,0.00
2018-05-24T01:42:27.895Z,0.00
2018-05-24T01:43:27.928Z,0.00
2018-05-24T01:44:27.964Z,0.00
2018-05-24T01:45:27.999Z,0.00
2018-05-24T01:46:28.035Z,0.00
2018-05-24T01:47:28.071Z,0.00
2018-05-24T01:48:28.105Z,0.00
2018-05-24T01:49:28.141Z,0.00
2018-05-24T01:50:28.177Z,0.00
2018-05-24T01:51:28.219Z,0.00
2018-05-24T01:52:28.250Z,0.00
2018-05-24T01:53:28.282Z,0.00
2018-05-24T01:54:28.319Z,0.00
2018-05-24T01:55:28.354Z,0.00
2018-05-24T01:56:28.390Z,0.00
2018-05-24T01:57:28.425Z,0.00
2018-05-24T01:58:28.461Z,0.00
2018-05-24T01:59:28.496Z,0.00
2018-05-24T02:00:28.531Z,0.00
2018-05-24T02:01:28.568Z,0.00
2018-05-24T02:02:28.603Z,0.00
2018-05-24T02:03:28.636Z,0.00
2018-05-24T02:04:28.673Z,0.00
2018-05-24T02:05:28.709Z,0.00
2018-05-24T02:06:28.744Z,0.00
2018-05-24T02:07:28.779Z,0.00
2018-05-24T02:08:28.815Z,0.00
2018-05-24T02:09:28.849Z,0.00
2018-05-24T02:10:28.889Z,0.00
2018-05-24T02:11:28.920Z,0.00
2018-05-24T02:12:28.957Z,0.00
2018-05-24T02:13:28.991Z,0.00
2018-05-24T02:14:29.031Z,0.00
2018-05-24T02:15:29.061Z,0.00
2018-05-24T02:16:29.096Z,0.00
2018-05-24T02:17:29.133Z,0.00
2018-05-24T02:18:29.173Z,0.00
2018-05-24T02:19:29.203Z,0.00
2018-05-24T02:20:29.239Z,0.00
2018-05-24T02:21:29.274Z,0.00
2018-05-24T02:22:29.310Z,0.00
2018-05-24T02:23:29.345Z,0.00
2018-05-24T02:24:29.381Z,0.00
2018-05-24T02:25:29.416Z,0.00
2018-05-24T02:26:29.454Z,0.00
2018-05-24T02:27:29.486Z,0.00
2018-05-24T02:28:29.522Z,0.00
2018-05-24T02:29:29.557Z,0.00
2018-05-24T02:30:36.728Z,0.00
2018-05-24T02:31:29.627Z,0.00
2018-05-24T02:32:29.667Z,0.00
2018-05-24T02:33:29.699Z,0.00
2018-05-24T02:34:29.735Z,0.00
2018-05-24T02:35:29.769Z,0.00
2018-05-24T02:36:29.805Z,0.00
2018-05-24T02:37:29.840Z,0.00
2018-05-24T02:38:29.876Z,0.00
2018-05-24T02:39:29.910Z,0.00
2018-05-24T02:40:29.946Z,0.00
2018-05-24T02:41:29.982Z,0.00
2018-05-24T02:42:30.017Z,0.00
2018-05-24T02:43:30.053Z,0.00
2018-05-24T02:44:30.088Z,0.00
2018-05-24T02:45:30.123Z,0.00
2018-05-24T02:46:30.158Z,0.00
2018-05-24T02:47:30.192Z,0.00
2018-05-24T02:48:30.228Z,0.00
2018-05-24T02:49:30.264Z,0.00
2018-05-24T02:50:30.300Z,0.00
2018-05-24T02:51:30.333Z,0.00
2018-05-24T02:52:30.369Z,0.00
2018-05-24T02:53:30.405Z,0.00
2018-05-24T02:54:30.446Z,0.00
2018-05-24T02:55:30.477Z,0.00
2018-05-24T02:56:30.510Z,0.00
2018-05-24T02:57:30.545Z,0.00
2018-05-24T02:58:30.581Z,0.00
2018-05-24T02:59:30.616Z,0.00
2018-05-24T03:00:30.651Z,0.00
2018-05-24T03:01:30.691Z,0.00
2018-05-24T03:02:30.721Z,0.00
2018-05-24T03:03:30.756Z,0.00
2018-05-24T03:04:30.790Z,0.00
2018-05-24T03:05:30.827Z,0.00
2018-05-24T03:06:30.863Z,0.00
2018-05-24T03:07:30.896Z,0.00
2018-05-24T03:08:30.932Z,4.00
2018-05-24T03:09:30.967Z,4.00
2018-05-24T03:10:31.001Z,0.00
2018-05-24T03:11:31.037Z,0.00
2018-05-24T03:12:31.073Z,4.00
2018-05-24T03:13:31.110Z,4.00
2018-05-24T03:14:31.144Z,4.00
2018-05-24T03:15:31.177Z,4.00
2018-05-24T03:16:31.214Z,4.00
2018-05-24T03:17:31.252Z,8.00
2018-05-24T03:18:31.355Z,12.00
2018-05-24T03:19:31.318Z,12.00
2018-05-24T03:20:31.353Z,12.00
2018-05-24T03:21:31.388Z,16.00
2018-05-24T03:22:31.424Z,16.00
2018-05-24T03:23:31.459Z,20.00
2018-05-24T03:24:31.493Z,24.00
2018-05-24T03:25:31.529Z,24.00
2018-05-24T03:26:31.565Z,28.00
2018-05-24T03:27:31.601Z,36.00
2018-05-24T03:28:31.634Z,36.00
2018-05-24T03:29:31.671Z,40.00
2018-05-24T03:30:31.704Z,48.00
2018-05-24T03:31:31.744Z,48.00
2018-05-24T03:32:31.775Z,52.00
2018-05-24T03:33:31.810Z,56.00
2018-05-24T03:34:31.845Z,60.00
2018-05-24T03:35:31.880Z,68.00
2018-05-24T03:36:31.916Z,76.00
2018-05-24T03:37:31.952Z,84.00
2018-05-24T03:38:31.986Z,92.00
2018-05-24T03:39:32.022Z,104.00
2018-05-24T03:40:32.056Z,120.00
2018-05-24T03:41:32.091Z,140.00
2018-05-24T03:42:32.126Z,160.00
2018-05-24T03:43:32.159Z,184.00
2018-05-24T03:44:32.196Z,208.00
2018-05-24T03:45:32.230Z,228.00
2018-05-24T03:46:32.267Z,252.00
2018-05-24T03:47:32.301Z,276.00
2018-05-24T03:48:32.337Z,300.00
2018-05-24T03:49:32.372Z,320.00
2018-05-24T03:50:32.411Z,344.00
2018-05-24T03:51:32.443Z,372.00
2018-05-24T03:52:32.481Z,404.00
2018-05-24T03:53:32.513Z,428.00
2018-05-24T03:54:32.553Z,452.00
2018-05-24T03:55:32.582Z,480.00
2018-05-24T03:56:32.618Z,516.00
2018-05-24T03:57:32.653Z,568.00
2018-05-24T03:58:32.693Z,620.00
2018-05-24T03:59:32.723Z,684.00
2018-05-24T04:00:32.758Z,740.00
2018-05-24T04:01:32.792Z,792.00
2018-05-24T04:02:32.837Z,848.00
2018-05-24T04:03:32.863Z,880.00
2018-05-24T04:04:32.899Z,880.00
2018-05-24T04:05:32.933Z,868.00
2018-05-24T04:06:32.970Z,852.00
2018-05-24T04:07:33.004Z,840.00
2018-05-24T04:08:33.039Z,840.00
2018-05-24T04:09:33.074Z,860.00
2018-05-24T04:10:33.110Z,864.00
2018-05-24T04:11:33.145Z,852.00
2018-05-24T04:12:33.182Z,856.00
2018-05-24T04:13:33.215Z,852.00
2018-05-24T04:14:33.250Z,872.00
2018-05-24T04:15:33.286Z,872.00
2018-05-24T04:16:33.324Z,852.00
2018-05-24T04:17:33.356Z,856.00
2018-05-24T04:18:33.391Z,872.00
2018-05-24T04:19:33.425Z,884.00
2018-05-24T04:20:33.461Z,920.00
2018-05-24T04:21:33.496Z,952.00
2018-05-24T04:22:33.532Z,956.00
2018-05-24T04:23:33.655Z,984.00
2018-05-24T04:24:33.602Z,1012.00
2018-05-24T04:25:33.636Z,1052.00
2018-05-24T04:26:33.672Z,1088.00
2018-05-24T04:27:33.706Z,1132.00
2018-05-24T04:28:33.741Z,1176.00
2018-05-24T04:29:33.777Z,1208.00
2018-05-24T04:30:33.812Z,1208.00
2018-05-24T04:31:33.853Z,1188.00
2018-05-24T04:32:33.882Z,1160.00
2018-05-24T04:33:33.927Z,1124.00
2018-05-24T04:34:33.953Z,1092.00
2018-05-24T04:35:33.986Z,1120.00
2018-05-24T04:36:34.021Z,1176.00
2018-05-24T04:37:34.058Z,1236.00
2018-05-24T04:38:34.093Z,1280.00
2018-05-24T04:39:34.127Z,1320.00
2018-05-24T04:40:34.163Z,1364.00
2018-05-24T04:41:34.198Z,1372.00
2018-05-24T04:42:34.233Z,1324.00
2018-05-24T04:43:34.267Z,1268.00
2018-05-24T04:44:34.303Z,1212.00
2018-05-24T04:45:34.400Z,1160.00
2018-05-24T04:46:34.374Z,1132.00
2018-05-24T04:47:34.408Z,1152.00
2018-05-24T04:48:34.444Z,1220.00
2018-05-24T04:49:34.479Z,1336.00
2018-05-24T04:50:34.513Z,1440.00
2018-05-24T04:51:34.549Z,1536.00
2018-05-24T04:52:34.584Z,1620.00
2018-05-24T04:53:34.620Z,1688.00
2018-05-24T04:54:34.655Z,1740.00
2018-05-24T04:55:34.689Z,1764.00
2018-05-24T04:56:34.724Z,1840.00
2018-05-24T04:57:34.760Z,1992.00
2018-05-24T04:58:34.794Z,2196.00
2018-05-24T04:59:34.830Z,2336.00
2018-05-24T05:00:34.870Z,2408.00
2018-05-24T05:01:34.940Z,2492.00
2018-05-24T05:02:34.935Z,2536.00
2018-05-24T05:03:34.968Z,2572.00
2018-05-24T05:04:35.005Z,2536.00
2018-05-24T05:05:35.039Z,2528.00
2018-05-24T05:06:35.075Z,2624.00
2018-05-24T05:07:35.111Z,2676.00
2018-05-24T05:08:35.145Z,2780.00
2018-05-24T05:09:35.179Z,2912.00
2018-05-24T05:10:35.216Z,3016.00
2018-05-24T05:11:35.250Z,3088.00
2018-05-24T05:12:35.285Z,3124.00
2018-05-24T05:13:35.368Z,3148.00
2018-05-24T05:14:35.377Z,3288.00
2018-05-24T05:15:35.390Z,3428.00
2018-05-24T05:16:35.426Z,3496.00
2018-05-24T05:17:35.461Z,3656.00
2018-05-24T05:18:35.497Z,3892.00
2018-05-24T05:19:35.579Z,4372.00
2018-05-24T05:20:35.567Z,4696.00
2018-05-24T05:21:35.602Z,4808.00
2018-05-24T05:22:35.638Z,4892.00
2018-05-24T05:23:35.676Z,4964.00
2018-05-24T05:24:35.709Z,5100.00
2018-05-24T05:25:35.744Z,5356.00
2018-05-24T05:26:35.781Z,5580.00
2018-05-24T05:27:35.814Z,5756.00
2018-05-24T05:28:35.853Z,5952.00
2018-05-24T05:29:35.886Z,6184.00
2018-05-24T05:30:35.966Z,6352.00
2018-05-24T05:31:35.962Z,6420.00
2018-05-24T05:32:35.992Z,6512.00
2018-05-24T05:33:36.035Z,6652.00
2018-05-24T05:34:36.065Z,6824.00
2018-05-24T05:35:36.100Z,6964.00
2018-05-24T05:36:36.135Z,7180.00
2018-05-24T05:37:36.172Z,7404.00
2018-05-24T05:38:36.208Z,7676.00
2018-05-24T05:39:36.242Z,7780.00
2018-05-24T05:40:36.277Z,7736.00
2018-05-24T05:41:36.314Z,7720.00
2018-05-24T05:42:36.351Z,7968.00
2018-05-24T05:43:36.385Z,8280.00
2018-05-24T05:44:36.421Z,8392.00
2018-05-24T05:45:36.459Z,8876.00
2018-05-24T05:46:36.495Z,9140.00
2018-05-24T05:47:36.529Z,9288.00
2018-05-24T05:48:36.567Z,9040.00
2018-05-24T05:49:36.604Z,8832.00
2018-05-24T05:50:36.640Z,8596.00
2018-05-24T05:51:36.676Z,8472.00
2018-05-24T05:52:36.712Z,8084.00
2018-05-24T05:53:36.750Z,7728.00
2018-05-24T05:54:36.787Z,7368.00
2018-05-24T05:55:36.822Z,6964.00
2018-05-24T05:56:36.859Z,6724.00
2018-05-24T05:57:36.895Z,6648.00
2018-05-24T05:58:36.932Z,6512.00
2018-05-24T05:59:36.968Z,6452.00
2018-05-24T06:00:37.006Z,6360.00
2018-05-24T06:01:37.070Z,6232.00
2018-05-24T06:02:37.079Z,6136.00
2018-05-24T06:03:37.115Z,6088.00
2018-05-24T06:04:37.150Z,6020.00
2018-05-24T06:05:37.188Z,5916.00
2018-05-24T06:06:37.225Z,5764.00
2018-05-24T06:07:37.261Z,5552.00
2018-05-24T06:08:37.299Z,5456.00
2018-05-24T06:09:37.397Z,5332.00
2018-05-24T06:10:37.372Z,5200.00
2018-05-24T06:11:37.409Z,5120.00
2018-05-24T06:12:37.444Z,5060.00
2018-05-24T06:13:37.482Z,4968.00
2018-05-24T06:14:37.519Z,4920.00
2018-05-24T06:15:37.555Z,4864.00
2018-05-24T06:16:37.590Z,4804.00
2018-05-24T06:17:37.627Z,4784.00
2018-05-24T06:18:37.675Z,4780.00
2018-05-24T06:19:37.700Z,4792.00
2018-05-24T06:20:37.737Z,4880.00
2018-05-24T06:21:37.849Z,4904.00
2018-05-24T06:22:37.871Z,4972.00
2018-05-24T06:23:37.847Z,4936.00
2018-05-24T06:24:37.883Z,4904.00
2018-05-24T06:25:37.921Z,4944.00
2018-05-24T06:26:37.957Z,5048.00
2018-05-24T06:27:37.993Z,5044.00
2018-05-24T06:28:38.030Z,5156.00
2018-05-24T06:29:38.068Z,5248.00
2018-05-24T06:30:38.105Z,5260.00
2018-05-24T06:31:38.139Z,5268.00
2018-05-24T06:32:38.179Z,5280.00
2018-05-24T06:33:38.214Z,5328.00
2018-05-24T06:34:38.251Z,5468.00
2018-05-24T06:35:38.293Z,5656.00
2018-05-24T06:36:38.324Z,5908.00
2018-05-24T06:37:38.360Z,6200.00
2018-05-24T06:38:38.407Z,6436.00
2018-05-24T06:39:38.433Z,6624.00
2018-05-24T06:40:38.514Z,6780.00
2018-05-24T06:41:38.507Z,6920.00
2018-05-24T06:42:38.547Z,7052.00
2018-05-24T06:43:38.581Z,7180.00
2018-05-24T06:44:38.616Z,7308.00
2018-05-24T06:45:38.654Z,7460.00
2018-05-24T06:46:38.691Z,7632.00
2018-05-24T06:47:38.727Z,7812.00
2018-05-24T06:48:38.769Z,7944.00
2018-05-24T06:49:38.800Z,8008.00
2018-05-24T06:50:38.842Z,8020.00
2018-05-24T06:51:38.875Z,8008.00
2018-05-24T06:52:38.912Z,8044.00
2018-05-24T06:53:38.965Z,8136.00
2018-05-24T06:54:38.986Z,8296.00
2018-05-24T06:55:39.022Z,8496.00
2018-05-24T06:56:39.059Z,8688.00
2018-05-24T06:57:39.097Z,8812.00
2018-05-24T06:58:39.133Z,8904.00
2018-05-24T06:59:39.170Z,9016.00
2018-05-24T07:00:39.208Z,9192.00
2018-05-24T07:01:39.248Z,9360.00
2018-05-24T07:02:39.283Z,9364.00
2018-05-24T07:03:39.319Z,9268.00
2018-05-24T07:04:39.356Z,9288.00
2018-05-24T07:05:39.394Z,9484.00
2018-05-24T07:06:39.430Z,10044.00
2018-05-24T07:07:39.481Z,10696.00
2018-05-24T07:08:39.505Z,11376.00
2018-05-24T07:09:39.546Z,11944.00
2018-05-24T07:10:39.581Z,12400.00
2018-05-24T07:11:39.618Z,12848.00
2018-05-24T07:12:39.655Z,13244.00
2018-05-24T07:13:39.694Z,13608.00
2018-05-24T07:14:39.733Z,13860.00
2018-05-24T07:15:39.769Z,13936.00
2018-05-24T07:16:39.806Z,13880.00
2018-05-24T07:17:39.843Z,13720.00
2018-05-24T07:18:39.889Z,13480.00
2018-05-24T07:19:39.919Z,13208.00
2018-05-24T07:20:39.957Z,12944.00
2018-05-24T07:21:40.002Z,12784.00
2018-05-24T07:22:40.038Z,12792.00
2018-05-24T07:23:40.071Z,12896.00
2018-05-24T07:24:40.223Z,13048.00
2018-05-24T07:25:40.148Z,13124.00
2018-05-24T07:26:40.186Z,13000.00
2018-05-24T07:27:40.223Z,12668.00
2018-05-24T07:28:40.261Z,12264.00
2018-05-24T07:29:40.304Z,11904.00
2018-05-24T07:30:40.339Z,11576.00
2018-05-24T07:31:40.376Z,11280.00
2018-05-24T07:32:40.414Z,11060.00
2018-05-24T07:33:40.453Z,10812.00
2018-05-24T07:34:40.491Z,10348.00
2018-05-24T07:35:40.530Z,10028.00
2018-05-24T07:36:40.567Z,9948.00
2018-05-24T07:37:40.663Z,10048.00
2018-05-24T07:38:40.650Z,10276.00
2018-05-24T07:39:40.790Z,10132.00
2018-05-24T07:40:40.721Z,9712.00
2018-05-24T07:41:40.761Z,9512.00
2018-05-24T07:42:40.799Z,9284.00
2018-05-24T07:43:40.837Z,9300.00
2018-05-24T07:44:40.875Z,9528.00
2018-05-24T07:45:40.913Z,9500.00
2018-05-24T07:46:40.954Z,9840.00
2018-05-24T07:47:40.989Z,10568.00
2018-05-24T07:48:41.029Z,11384.00
2018-05-24T07:49:41.069Z,11916.00
2018-05-24T07:50:41.106Z,11936.00
2018-05-24T07:51:41.147Z,11812.00
2018-05-24T07:52:41.183Z,11704.00
2018-05-24T07:53:41.222Z,11344.00
2018-05-24T07:54:41.268Z,10920.00
2018-05-24T07:55:41.299Z,10432.00
2018-05-24T07:56:41.338Z,9616.00
2018-05-24T07:57:41.376Z,9184.00
2018-05-24T07:58:41.415Z,9400.00
2018-05-24T07:59:41.452Z,9688.00
2018-05-24T08:00:41.493Z,9836.00
2018-05-24T08:01:41.559Z,10172.00
2018-05-24T08:02:41.569Z,10916.00
2018-05-24T08:03:41.608Z,11248.00
2018-05-24T08:04:41.646Z,11820.00
2018-05-24T08:05:41.687Z,12200.00
2018-05-24T08:06:41.729Z,12352.00
2018-05-24T08:07:41.761Z,12184.00
2018-05-24T08:08:41.853Z,11692.00
2018-05-24T08:09:41.840Z,11904.00
2018-05-24T08:10:41.878Z,12240.00
2018-05-24T08:11:41.916Z,12276.00
2018-05-24T08:12:41.956Z,12148.00
2018-05-24T08:13:41.999Z,11956.00
2018-05-24T08:14:42.134Z,12168.00
2018-05-24T08:15:42.072Z,12388.00
2018-05-24T08:16:42.111Z,12736.00
2018-05-24T08:17:42.151Z,13280.00
2018-05-24T08:18:42.189Z,13728.00
2018-05-24T08:19:42.228Z,14248.00
2018-05-24T08:20:42.267Z,14460.00
2018-05-24T08:21:42.306Z,14520.00
2018-05-24T08:22:42.347Z,15012.00
2018-05-24T08:23:42.387Z,15652.00
2018-05-24T08:24:42.423Z,16608.00
2018-05-24T08:25:42.462Z,16928.00
2018-05-24T08:26:42.502Z,17472.00
2018-05-24T08:27:42.539Z,18112.00
2018-05-24T08:28:42.582Z,18848.00
2018-05-24T08:29:42.618Z,19904.00
2018-05-24T08:30:42.660Z,20448.00
2018-05-24T08:31:42.698Z,20224.00
2018-05-24T08:32:42.738Z,20736.00
2018-05-24T08:33:42.780Z,21344.00
2018-05-24T08:34:42.817Z,21088.00
2018-05-24T08:35:42.856Z,21376.00
2018-05-24T08:36:42.896Z,22688.00
2018-05-24T08:37:42.937Z,23232.00
2018-05-24T08:38:42.977Z,20352.00
2018-05-24T08:39:43.016Z,19200.00
2018-05-24T08:40:43.153Z,18688.00
2018-05-24T08:41:43.135Z,20576.00
2018-05-24T08:42:43.138Z,22976.00
2018-05-24T08:43:43.175Z,24864.00
2018-05-24T08:44:43.217Z,26112.00
2018-05-24T08:45:43.260Z,25696.00
2018-05-24T08:46:43.301Z,24576.00
2018-05-24T08:47:43.337Z,22816.00
2018-05-24T08:48:43.378Z,21376.00
2018-05-24T08:49:43.419Z,20800.00
2018-05-24T08:50:43.461Z,20448.00
2018-05-24T08:51:43.500Z,22496.00
2018-05-24T08:52:43.541Z,24672.00
2018-05-24T08:53:43.582Z,25600.00
2018-05-24T08:54:43.627Z,25472.00
2018-05-24T08:55:43.663Z,25504.00
2018-05-24T08:56:43.704Z,26912.00
2018-05-24T08:57:43.746Z,27104.00
2018-05-24T08:58:43.786Z,26592.00
2018-05-24T08:59:43.827Z,27712.00
2018-05-24T09:00:43.867Z,28320.00
2018-05-24T09:01:43.911Z,26624.00
2018-05-24T09:02:43.953Z,27168.00
2018-05-24T09:03:43.993Z,23872.00
2018-05-24T09:04:44.035Z,23040.00
2018-05-24T09:05:44.077Z,22400.00
2018-05-24T09:06:44.121Z,22624.00
2018-05-24T09:07:44.160Z,22560.00
2018-05-24T09:08:44.201Z,23584.00
2018-05-24T09:09:44.243Z,24992.00
2018-05-24T09:10:44.284Z,26656.00
2018-05-24T09:11:44.324Z,24832.00
2018-05-24T09:12:44.368Z,22240.00
2018-05-24T09:13:44.409Z,20896.00
2018-05-24T09:14:44.450Z,21440.00
2018-05-24T09:15:44.492Z,23008.00
2018-05-24T09:16:44.533Z,22656.00
2018-05-24T09:17:44.575Z,22240.00
2018-05-24T09:18:44.616Z,24224.00
2018-05-24T09:19:44.657Z,28608.00
2018-05-24T09:20:44.699Z,30592.00
2018-05-24T09:21:44.745Z,32832.00
2018-05-24T09:22:44.783Z,30784.00
2018-05-24T09:23:44.824Z,28864.00
2018-05-24T09:24:44.865Z,26720.00
2018-05-24T09:25:44.908Z,26624.00
2018-05-24T09:26:44.951Z,25664.00
2018-05-24T09:27:44.992Z,21952.00
2018-05-24T09:28:45.034Z,21952.00
2018-05-24T09:29:45.077Z,22112.00
2018-05-24T09:30:45.119Z,22304.00
2018-05-24T09:31:45.160Z,21120.00
2018-05-24T09:32:45.202Z,20256.00
2018-05-24T09:33:45.261Z,21024.00
2018-05-24T09:34:45.286Z,23200.00
2018-05-24T09:35:45.328Z,24736.00
2018-05-24T09:36:45.370Z,26912.00
2018-05-24T09:37:45.413Z,28128.00
2018-05-24T09:38:45.455Z,27264.00
2018-05-24T09:39:45.552Z,21504.00
2018-05-24T09:40:45.538Z,20352.00
2018-05-24T09:41:45.581Z,22080.00
2018-05-24T09:42:45.622Z,22912.00
2018-05-24T09:43:45.665Z,24352.00
2018-05-24T09:44:45.707Z,23968.00
2018-05-24T09:45:45.748Z,21888.00
2018-05-24T09:46:45.791Z,17984.00
2018-05-24T09:47:45.919Z,18528.00
2018-05-24T09:48:45.874Z,16104.00
2018-05-24T09:49:45.924Z,17492.00
2018-05-24T09:50:45.961Z,20064.00
2018-05-24T09:51:46.001Z,23456.00
2018-05-24T09:52:46.043Z,26496.00
2018-05-24T09:53:46.085Z,22560.00
2018-05-24T09:54:46.127Z,24896.00
2018-05-24T09:55:46.168Z,24672.00
2018-05-24T09:56:46.211Z,25088.00
2018-05-24T09:57:46.254Z,22272.00
2018-05-24T09:58:46.295Z,22176.00
2018-05-24T09:59:46.336Z,20800.00
2018-05-24T10:00:46.378Z,19904.00
2018-05-24T10:01:46.421Z,19584.00
2018-05-24T10:02:46.464Z,19360.00
2018-05-24T10:03:46.504Z,19648.00
2018-05-24T10:04:46.630Z,18848.00
2018-05-24T10:05:46.592Z,18976.00
2018-05-24T10:06:46.632Z,18464.00
2018-05-24T10:07:46.673Z,16232.00
2018-05-24T10:08:46.720Z,19136.00
2018-05-24T10:09:46.759Z,18848.00
2018-05-24T10:10:46.800Z,18880.00
2018-05-24T10:11:46.843Z,19008.00
2018-05-24T10:12:46.885Z,19168.00
2018-05-24T10:13:46.928Z,19776.00
2018-05-24T10:14:46.973Z,19936.00
2018-05-24T10:15:47.012Z,20160.00
2018-05-24T10:16:47.055Z,21088.00
2018-05-24T10:17:47.097Z,20928.00
2018-05-24T10:18:47.140Z,21024.00
2018-05-24T10:19:47.181Z,21600.00
2018-05-24T10:20:47.224Z,22336.00
2018-05-24T10:21:47.266Z,23168.00
2018-05-24T10:22:47.309Z,21056.00
2018-05-24T10:23:47.351Z,16492.00
2018-05-24T10:24:47.397Z,18208.00
2018-05-24T10:25:47.437Z,19776.00
2018-05-24T10:26:47.480Z,31296.00
2018-05-24T10:27:47.522Z,109184.00
2018-05-24T10:28:47.564Z,107456.00
2018-05-24T10:29:47.608Z,110464.00
2018-05-24T10:30:47.651Z,107936.00
2018-05-24T10:31:47.694Z,106688.00
2018-05-24T10:32:47.739Z,29408.00
2018-05-24T10:33:47.784Z,41824.00
2018-05-24T10:34:47.830Z,41152.00
2018-05-24T10:35:47.877Z,26656.00
2018-05-24T10:36:47.919Z,25056.00
2018-05-24T10:37:47.964Z,24736.00
2018-05-24T10:38:48.011Z,24096.00
2018-05-24T10:39:48.054Z,26208.00
2018-05-24T10:40:48.102Z,103168.00
2018-05-24T10:41:48.145Z,111648.00
2018-05-24T10:42:48.190Z,108256.00
2018-05-24T10:43:48.235Z,103968.00
2018-05-24T10:44:48.280Z,33504.00
2018-05-24T10:45:48.327Z,24096.00
2018-05-24T10:46:48.376Z,20544.00
2018-05-24T10:47:48.420Z,19008.00
2018-05-24T10:48:48.464Z,18784.00
2018-05-24T10:49:48.512Z,17824.00
2018-05-24T10:50:48.559Z,18464.00
2018-05-24T10:51:48.602Z,18464.00
2018-05-24T10:52:48.648Z,19840.00
2018-05-24T10:53:48.693Z,74368.00
2018-05-24T10:54:48.739Z,21664.00
2018-05-24T10:55:48.796Z,17056.00
2018-05-24T10:56:48.842Z,17280.00
2018-05-24T10:57:48.874Z,18496.00
2018-05-24T10:58:48.921Z,20640.00
2018-05-24T10:59:48.963Z,22496.00
2018-05-24T11:00:49.008Z,25216.00
2018-05-24T11:01:49.052Z,31040.00
2018-05-24T11:02:49.097Z,28128.00
2018-05-24T11:03:49.141Z,33344.00
2018-05-24T11:04:49.185Z,58080.00
2018-05-24T11:05:49.231Z,25792.00
2018-05-24T11:06:49.275Z,20864.00
2018-05-24T11:07:49.318Z,21728.00
2018-05-24T11:08:49.389Z,20352.00
2018-05-24T11:09:49.408Z,20768.00
2018-05-24T11:10:49.452Z,21632.00
2018-05-24T11:11:49.496Z,26560.00
2018-05-24T11:12:49.541Z,25408.00
2018-05-24T11:13:49.585Z,21024.00
2018-05-24T11:14:49.630Z,20992.00
2018-05-24T11:15:49.673Z,25376.00
2018-05-24T11:16:49.717Z,27552.00
2018-05-24T11:17:49.761Z,63168.00
2018-05-24T11:18:49.805Z,124960.00
2018-05-24T11:19:49.849Z,65888.00
2018-05-24T11:20:49.896Z,38560.00
2018-05-24T11:21:49.939Z,28640.00
2018-05-24T11:22:49.983Z,24512.00
2018-05-24T11:23:50.031Z,45408.00
2018-05-24T11:24:50.075Z,24288.00
2018-05-24T11:25:50.119Z,18624.00
2018-05-24T11:26:50.164Z,16928.00
2018-05-24T11:27:50.211Z,16772.00
2018-05-24T11:28:50.253Z,16952.00
2018-05-24T11:29:50.298Z,16444.00
2018-05-24T11:30:50.344Z,19008.00
2018-05-24T11:31:50.462Z,17004.00
2018-05-24T11:32:50.432Z,18528.00
2018-05-24T11:33:50.478Z,22912.00
2018-05-24T11:34:50.521Z,23808.00
2018-05-24T11:35:50.566Z,127712.00
2018-05-24T11:36:50.611Z,128032.00
2018-05-24T11:37:50.656Z,128256.00
2018-05-24T11:38:50.749Z,134656.00
2018-05-24T11:39:50.745Z,138368.00
2018-05-24T11:40:50.791Z,142720.00
2018-05-24T11:41:50.839Z,144928.00
2018-05-24T11:42:50.890Z,22720.00
2018-05-24T11:43:50.932Z,27232.00
2018-05-24T11:44:50.981Z,84384.00
2018-05-24T11:45:51.030Z,25024.00
2018-05-24T11:46:51.077Z,36768.00
2018-05-24T11:47:51.128Z,42656.00
2018-05-24T11:48:51.173Z,129952.00
2018-05-24T11:49:51.221Z,127328.00
2018-05-24T11:50:51.273Z,131488.00
2018-05-24T11:51:51.388Z,124320.00
2018-05-24T11:52:51.367Z,137760.00
2018-05-24T11:53:51.418Z,120736.00
2018-05-24T11:54:51.467Z,122784.00
2018-05-24T11:55:51.517Z,21952.00
2018-05-24T11:56:51.568Z,20000.00
2018-05-24T11:57:51.618Z,16744.00
2018-05-24T11:58:51.668Z,15936.00
2018-05-24T11:59:51.718Z,27104.00
2018-05-24T12:00:51.769Z,55712.00
2018-05-24T12:01:51.856Z,146432.00
2018-05-24T12:02:51.875Z,142432.00
2018-05-24T12:03:51.916Z,139008.00
2018-05-24T12:04:52.012Z,52384.00
2018-05-24T12:05:52.104Z,130176.00
2018-05-24T12:06:52.066Z,125344.00
2018-05-24T12:07:52.119Z,127360.00
2018-05-24T12:08:52.166Z,131968.00
2018-05-24T12:09:52.306Z,132320.00
2018-05-24T12:10:52.270Z,132928.00
2018-05-24T12:11:52.320Z,134880.00
2018-05-24T12:12:52.372Z,135360.00
2018-05-24T12:13:52.424Z,132416.00
2018-05-24T12:14:52.477Z,128000.00
2018-05-24T12:15:52.529Z,119808.00
2018-05-24T12:16:52.585Z,30944.00